createdAt,value
2022-09-24T00:03:31.074Z,15.00
2022-09-24T00:08:33.722Z,15.00
2022-09-24T00:13:36.176Z,14.90
2022-09-24T00:18:39.117Z,14.90
2022-09-24T00:23:41.573Z,15.00
2022-09-24T00:28:43.947Z,15.00
2022-09-24T00:33:46.135Z,14.90
2022-09-24T00:38:53.381Z,14.90
2022-09-24T00:43:56.199Z,14.90
2022-09-24T00:49:13.887Z,14.90
2022-09-24T00:54:20.057Z,14.90
2022-09-24T00:59:24.735Z,14.90
2022-09-24T01:04:33.960Z,14.90
2022-09-24T01:09:36.132Z,14.90
2022-09-24T01:14:47.251Z,14.90
2022-09-24T01:20:01.371Z,14.90
2022-09-24T01:25:09.609Z,14.80
2022-09-24T01:30:15.567Z,14.80
2022-09-24T01:35:26.608Z,14.80
2022-09-24T01:40:30.449Z,14.80
2022-09-24T01:45:35.231Z,14.80
2022-09-24T01:51:04.791Z,14.80
2022-09-24T01:56:18.734Z,14.80
2022-09-24T02:01:31.031Z,14.70
2022-09-24T02:06:38.203Z,14.70
2022-09-24T02:11:40.345Z,14.70
2022-09-24T02:16:47.617Z,14.60
2022-09-24T02:21:51.081Z,14.60
2022-09-24T02:26:55.108Z,14.60
2022-09-24T02:31:59.881Z,14.50
2022-09-24T02:37:11.190Z,14.50
2022-09-24T02:42:15.787Z,14.50
2022-09-24T02:47:19.137Z,14.50
2022-09-24T02:52:21.599Z,14.50
2022-09-24T02:57:23.782Z,14.40
2022-09-24T03:02:26.028Z,14.40
2022-09-24T03:07:28.246Z,14.40
2022-09-24T03:12:30.434Z,14.50
2022-09-24T03:17:33.435Z,14.50
2022-09-24T03:22:35.830Z,14.50
2022-09-24T03:27:37.959Z,14.50
2022-09-24T03:32:40.759Z,14.50
2022-09-24T03:37:47.061Z,14.40
2022-09-24T03:42:51.480Z,14.50
2022-09-24T03:47:53.609Z,14.40
2022-09-24T03:52:55.809Z,14.30
2022-09-24T03:57:57.950Z,14.20
2022-09-24T04:03:00.150Z,14.20
2022-09-24T04:08:02.929Z,14.30
2022-09-24T04:13:05.786Z,14.40
2022-09-24T04:18:08.291Z,14.40
2022-09-24T04:23:11.375Z,14.40
2022-09-24T04:28:13.584Z,14.40
2022-09-24T04:33:15.881Z,14.40
2022-09-24T04:38:19.409Z,14.40
2022-09-24T04:43:21.607Z,14.40
2022-09-24T04:48:24.227Z,14.40
2022-09-24T04:53:26.622Z,14.40
2022-09-24T04:58:28.807Z,14.40
2022-09-24T05:03:31.309Z,14.50
2022-09-24T05:08:33.422Z,14.40
2022-09-24T05:13:36.020Z,14.40
2022-09-24T05:18:38.194Z,14.40
2022-09-24T05:23:40.433Z,14.40
2022-09-24T05:28:42.968Z,14.40
2022-09-24T05:33:45.228Z,14.40
2022-09-24T05:38:47.342Z,14.40
2022-09-24T05:43:50.071Z,14.40
2022-09-24T05:48:52.236Z,14.40
2022-09-24T05:53:54.424Z,14.50
2022-09-24T05:58:56.750Z,14.50
2022-09-24T06:04:00.286Z,14.50
2022-09-24T06:09:05.572Z,14.50
2022-09-24T06:14:09.113Z,14.50
2022-09-24T06:19:11.404Z,14.50
2022-09-24T06:24:13.734Z,14.60
2022-09-24T06:29:15.930Z,14.50
2022-09-24T06:34:18.108Z,14.30
2022-09-24T06:39:20.265Z,14.40
2022-09-24T06:44:22.451Z,14.30
2022-09-24T06:49:24.597Z,14.20
2022-09-24T06:54:26.901Z,14.10
2022-09-24T06:59:29.592Z,14.10
2022-09-24T07:04:31.745Z,14.20
2022-09-24T07:09:33.973Z,14.20
2022-09-24T07:14:36.191Z,14.10
2022-09-24T07:19:38.672Z,14.20
2022-09-24T07:24:40.904Z,14.20
2022-09-24T07:29:43.101Z,14.20
2022-09-24T07:34:46.003Z,14.30
2022-09-24T07:39:48.142Z,14.40
2022-09-24T07:44:50.658Z,14.60
2022-09-24T07:49:52.853Z,14.60
2022-09-24T07:54:55.570Z,14.80
2022-09-24T07:59:57.760Z,14.90
2022-09-24T08:05:00.031Z,15.20
2022-09-24T08:10:02.254Z,15.60
2022-09-24T08:15:04.781Z,15.70
2022-09-24T08:20:07.497Z,16.00
2022-09-24T08:25:09.894Z,16.10
2022-09-24T08:30:12.568Z,16.00
2022-09-24T08:35:15.990Z,15.90
2022-09-24T08:40:23.895Z,15.90
2022-09-24T08:45:44.667Z,16.00
2022-09-24T08:51:12.493Z,15.90
2022-09-24T08:56:19.084Z,16.10
2022-09-24T09:01:44.665Z,16.50
2022-09-24T09:06:58.973Z,16.70
2022-09-24T09:12:10.542Z,16.70
2022-09-24T09:17:45.862Z,16.80
2022-09-24T09:22:50.380Z,16.50
2022-09-24T09:28:03.406Z,16.40
2022-09-24T09:33:21.859Z,16.60
2022-09-24T09:38:32.789Z,16.50
2022-09-24T09:43:35.431Z,17.10
2022-09-24T09:48:55.579Z,17.30
2022-09-24T09:54:03.338Z,17.70
2022-09-24T09:59:10.609Z,17.90
2022-09-24T10:04:21.585Z,17.80
2022-09-24T10:09:23.679Z,17.10
2022-09-24T10:14:25.802Z,16.80
2022-09-24T10:19:29.200Z,17.60
2022-09-24T10:24:31.460Z,17.50
2022-09-24T10:29:53.104Z,16.90
2022-09-24T10:35:05.924Z,16.70
2022-09-24T10:40:11.232Z,16.80
2022-09-24T10:45:16.976Z,17.50
2022-09-24T10:50:31.895Z,17.20
2022-09-24T10:55:46.227Z,16.80
2022-09-24T11:01:07.064Z,17.00
2022-09-24T11:06:22.965Z,17.20
2022-09-24T11:12:06.524Z,17.80
2022-09-24T11:17:51.605Z,18.70
2022-09-24T11:23:25.095Z,18.70
2022-09-24T11:28:59.532Z,18.20
2022-09-24T11:34:27.462Z,18.20
2022-09-24T11:39:32.534Z,17.70
2022-09-24T11:44:37.650Z,17.40
2022-09-24T11:49:45.391Z,17.40
2022-09-24T11:55:22.633Z,17.30
2022-09-24T12:00:32.073Z,17.10
2022-09-24T12:06:08.423Z,17.00
2022-09-24T12:11:30.844Z,17.00
2022-09-24T12:16:39.722Z,18.10
2022-09-24T12:21:45.397Z,18.30
2022-09-24T12:26:49.451Z,18.80
2022-09-24T12:32:36.072Z,18.00
2022-09-24T12:37:40.935Z,18.20
2022-09-24T12:42:51.661Z,18.70
2022-09-24T12:47:58.141Z,18.40
2022-09-24T12:53:00.367Z,17.60
2022-09-24T12:58:23.659Z,17.40
2022-09-24T13:03:31.399Z,17.50
2022-09-24T13:08:41.273Z,17.50
2022-09-24T13:13:44.234Z,17.60
2022-09-24T13:19:02.353Z,17.40
2022-09-24T13:24:12.264Z,17.60
2022-09-24T13:29:26.110Z,17.60
2022-09-24T13:34:30.299Z,17.50
2022-09-24T13:39:40.778Z,17.60
2022-09-24T13:44:47.292Z,17.40
2022-09-24T13:49:51.909Z,17.40
2022-09-24T13:55:02.161Z,17.30
2022-09-24T14:00:17.148Z,17.00
2022-09-24T14:05:20.150Z,16.60
2022-09-24T14:10:25.024Z,16.50
2022-09-24T14:15:27.234Z,16.50
2022-09-24T14:20:34.272Z,16.40
2022-09-24T14:25:38.080Z,16.30
2022-09-24T14:30:54.810Z,16.20
2022-09-24T14:35:59.442Z,16.10
2022-09-24T14:41:22.255Z,16.20
2022-09-24T14:46:29.952Z,16.20
2022-09-24T14:51:33.007Z,16.40
2022-09-24T14:56:36.320Z,16.30
2022-09-24T15:01:38.588Z,16.30
2022-09-24T15:06:47.491Z,16.20
2022-09-24T15:11:49.719Z,16.00
2022-09-24T15:16:53.311Z,16.00
2022-09-24T15:21:58.152Z,16.00
2022-09-24T15:27:05.992Z,16.10
2022-09-24T15:32:28.541Z,16.00
2022-09-24T15:37:30.711Z,15.90
2022-09-24T15:42:32.883Z,15.80
2022-09-24T15:47:34.960Z,15.90
2022-09-24T15:52:46.701Z,16.00
2022-09-24T15:57:49.008Z,16.20
2022-09-24T16:02:54.084Z,16.60
2022-09-24T16:07:56.275Z,16.90
2022-09-24T16:12:58.361Z,16.80
2022-09-24T16:18:00.484Z,16.90
2022-09-24T16:23:02.557Z,16.80
2022-09-24T16:28:04.727Z,16.60
2022-09-24T16:33:06.905Z,16.70
2022-09-24T16:38:09.035Z,16.70
2022-09-24T16:43:11.269Z,17.00
2022-09-24T16:48:13.723Z,17.00
2022-09-24T16:53:16.568Z,17.30
2022-09-24T16:58:18.668Z,17.10
2022-09-24T17:03:21.004Z,16.20
2022-09-24T17:08:23.099Z,16.10
2022-09-24T17:13:25.177Z,15.60
2022-09-24T17:18:27.733Z,15.40
2022-09-24T17:23:30.363Z,15.80
2022-09-24T17:28:37.030Z,16.80
2022-09-24T17:33:43.287Z,16.80
2022-09-24T17:38:46.310Z,16.30
2022-09-24T17:43:48.431Z,15.90
2022-09-24T17:48:53.345Z,15.60
2022-09-24T17:53:56.003Z,15.40
2022-09-24T17:58:59.200Z,15.50
2022-09-24T18:04:01.600Z,15.40
2022-09-24T18:09:05.369Z,15.30
2022-09-24T18:14:10.987Z,15.20
2022-09-24T18:19:15.098Z,15.00
2022-09-24T18:24:17.591Z,14.90
2022-09-24T18:29:20.363Z,14.80
2022-09-24T18:34:22.513Z,14.80
2022-09-24T18:39:25.708Z,14.70
2022-09-24T18:44:28.095Z,14.70
2022-09-24T18:49:30.450Z,14.70
2022-09-24T18:54:32.560Z,14.70
2022-09-24T18:59:38.734Z,14.80
2022-09-24T19:04:41.867Z,14.50
2022-09-24T19:09:44.132Z,13.70
2022-09-24T19:14:48.068Z,12.70
2022-09-24T19:19:52.540Z,12.10
2022-09-24T19:24:55.090Z,12.00
2022-09-24T19:29:57.389Z,12.00
2022-09-24T19:34:59.552Z,12.10
2022-09-24T19:40:03.185Z,12.10
2022-09-24T19:45:06.054Z,12.10
2022-09-24T19:50:08.622Z,12.20
2022-09-24T19:55:10.973Z,12.20
2022-09-24T20:00:14.072Z,12.20
2022-09-24T20:05:16.426Z,12.20
2022-09-24T20:10:18.793Z,12.30
2022-09-24T20:15:22.291Z,12.40
2022-09-24T20:20:24.531Z,12.50
2022-09-24T20:25:45.800Z,12.50
2022-09-24T20:30:48.081Z,12.40
2022-09-24T20:35:50.387Z,12.30
2022-09-24T20:40:52.728Z,12.20
2022-09-24T20:45:55.031Z,12.20
2022-09-24T20:50:57.191Z,12.20
2022-09-24T20:56:00.307Z,12.10
2022-09-24T21:01:02.832Z,12.00
2022-09-24T21:06:07.503Z,11.90
2022-09-24T21:11:20.982Z,11.80
2022-09-24T21:16:26.761Z,11.70
2022-09-24T21:21:31.818Z,11.70
2022-09-24T21:26:37.178Z,11.70
2022-09-24T21:31:42.096Z,11.60
2022-09-24T21:36:45.850Z,11.50
2022-09-24T21:41:50.362Z,11.40
2022-09-24T21:46:53.063Z,11.30
2022-09-24T21:51:57.684Z,11.30
2022-09-24T21:57:00.698Z,11.30
2022-09-24T22:02:04.104Z,11.20
2022-09-24T22:07:06.389Z,11.10
2022-09-24T22:12:08.519Z,11.20
2022-09-24T22:17:11.210Z,11.10
2022-09-24T22:22:13.495Z,11.10
2022-09-24T22:27:15.674Z,11.00
2022-09-24T22:32:17.876Z,11.00
2022-09-24T22:37:20.085Z,10.90
2022-09-24T22:42:22.424Z,10.90
2022-09-24T22:47:25.047Z,10.80
2022-09-24T22:52:28.377Z,10.80
2022-09-24T22:57:32.777Z,10.70
2022-09-24T23:02:35.414Z,10.70
2022-09-24T23:07:37.539Z,10.70
2022-09-24T23:12:39.706Z,10.60
2022-09-24T23:17:41.949Z,10.60
2022-09-24T23:22:44.119Z,10.50
2022-09-24T23:27:46.252Z,10.40
2022-09-24T23:32:48.397Z,10.40
2022-09-24T23:37:50.505Z,10.30
2022-09-24T23:42:52.803Z,10.40
2022-09-24T23:47:54.908Z,10.30
2022-09-24T23:52:57.076Z,10.30
2022-09-24T23:57:59.241Z,10.30
